Time;durP1;ratioP1;P1;durP2;ratioP2;P2;SDS_P1;SDS_P2;PMS_P1;PMS_P2;Temp;Humidity;BMP_temperature;BMP_pressure;BME280_temperature;BME280_humidity;BME280_pressure;Samples;Min_cycle;Max_cycle;Signal;HPM_P1;HPM_P2
2023/08/08 00:01:45;;;;;;;2.58;2.05;;;15.50;99.90;;;;;;5071172;28;20384;-43
2023/08/08 00:04:11;;;;;;;3.97;2.30;;;15.50;99.90;;;;;;5071950;28;20012;-44
2023/08/08 00:06:39;;;;;;;3.28;2.28;;;15.50;99.90;;;;;;5073675;28;20127;-42
2023/08/08 00:09:05;;;;;;;2.47;2.22;;;15.40;99.90;;;;;;5069851;28;20529;-42
2023/08/08 00:11:31;;;;;;;2.58;2.00;;;15.40;99.90;;;;;;5076135;28;20025;-42
2023/08/08 00:13:59;;;;;;;1.90;1.70;;;15.40;99.90;;;;;;5068770;28;20108;-43
2023/08/08 00:16:25;;;;;;;3.28;2.15;;;15.50;99.90;;;;;;5078540;28;20052;-43
2023/08/08 00:18:53;;;;;;;2.40;2.20;;;15.40;99.90;;;;;;5067443;28;20108;-43
2023/08/08 00:21:21;;;;;;;2.42;2.20;;;15.40;99.90;;;;;;5077999;28;20015;-43
2023/08/08 00:23:47;;;;;;;4.68;2.30;;;15.50;99.90;;;;;;5066718;28;20107;-42
2023/08/08 00:26:15;;;;;;;3.88;2.13;;;15.50;99.90;;;;;;5078321;28;20409;-42
2023/08/08 00:28:41;;;;;;;4.07;2.50;;;15.50;99.90;;;;;;5066760;28;20073;-42
2023/08/08 00:31:06;;;;;;;2.30;2.13;;;15.50;99.90;;;;;;5079079;28;20035;-42
2023/08/08 00:33:32;;;;;;;5.47;2.50;;;15.60;99.90;;;;;;5066038;28;20021;-43
2023/08/08 00:35:58;;;;;;;3.67;2.60;;;15.60;99.90;;;;;;5076365;28;20558;-43
2023/08/08 00:38:23;;;;;;;3.42;2.45;;;15.60;99.90;;;;;;5067357;28;20028;-43
2023/08/08 00:40:49;;;;;;;3.20;2.38;;;15.60;99.90;;;;;;5073871;28;20028;-43
2023/08/08 00:43:14;;;;;;;3.67;2.47;;;15.60;99.90;;;;;;5069831;28;20028;-43
2023/08/08 00:45:42;;;;;;;2.67;2.47;;;15.60;99.90;;;;;;5072166;28;20578;-43
2023/08/08 00:48:07;;;;;;;2.60;2.30;;;15.60;99.90;;;;;;5083260;28;20132;-43
2023/08/08 00:50:37;;;;;;;5.63;2.60;;;15.70;99.90;;;;;;5082642;28;20504;-43
2023/08/08 00:53:04;;;;;;;5.90;2.75;;;15.70;99.90;;;;;;5077835;28;20036;-43
2023/08/08 00:55:30;;;;;;;3.47;2.60;;;15.70;99.90;;;;;;5083564;28;20024;-44
2023/08/08 00:57:56;;;;;;;3.17;2.00;;;15.70;99.90;;;;;;5075070;28;20471;-43
2023/08/08 01:00:25;;;;;;;3.10;2.22;;;15.80;99.90;;;;;;5083646;28;20037;-43
2023/08/08 01:02:50;;;;;;;3.05;1.90;;;15.80;99.90;;;;;;5074034;28;20039;-43
2023/08/08 01:05:16;;;;;;;6.13;2.20;;;15.80;99.90;;;;;;5085487;28;20032;-43
2023/08/08 01:07:59;;;;;;;2.78;2.05;;;15.80;99.90;;;;;;5073503;28;20024;-43
2023/08/08 01:10:32;;;;;;;3.20;2.17;;;15.80;99.90;;;;;;5086365;28;20024;-43
2023/08/08 01:13:02;;;;;;;5.03;2.75;;;15.80;99.90;;;;;;5076983;28;20143;-43
2023/08/08 01:15:38;;;;;;;3.80;1.98;;;15.80;99.90;;;;;;5065067;28;20060;-43
2023/08/08 01:18:11;;;;;;;4.07;2.42;;;15.80;99.90;;;;;;5073548;28;20502;-43
2023/08/08 01:20:38;;;;;;;4.45;2.15;;;15.80;99.90;;;;;;5086118;28;20066;-43
2023/08/08 01:23:10;;;;;;;2.40;2.20;;;15.80;99.90;;;;;;5071497;28;20027;-44
2023/08/08 01:25:36;;;;;;;4.25;2.20;;;15.80;99.90;;;;;;5086330;28;20391;-43
2023/08/08 01:28:03;;;;;;;4.25;2.50;;;15.80;99.90;;;;;;5072010;28;20476;-44
2023/08/08 01:30:29;;;;;;;4.85;2.30;;;15.80;99.90;;;;;;5085332;28;20020;-43
2023/08/08 01:32:54;;;;;;;3.50;2.00;;;15.80;99.90;;;;;;5073879;28;20040;-43
2023/08/08 01:35:21;;;;;;;3.55;2.20;;;15.80;99.90;;;;;;5084575;28;20031;-43
2023/08/08 01:37:59;;;;;;;4.43;2.30;;;15.80;99.90;;;;;;5075149;28;20566;-43
2023/08/08 01:40:25;;;;;;;3.05;1.90;;;15.80;99.90;;;;;;5084374;28;20375;-43
2023/08/08 01:42:51;;;;;;;2.33;1.83;;;15.70;99.90;;;;;;5075461;28;20029;-43
2023/08/08 01:45:17;;;;;;;3.17;2.33;;;15.70;99.90;;;;;;5080470;28;20024;-43
2023/08/08 01:47:49;;;;;;;2.17;1.98;;;15.70;99.90;;;;;;5075368;28;20039;-43
2023/08/08 01:50:15;;;;;;;3.10;1.60;;;15.70;99.90;;;;;;5081994;28;20075;-43
2023/08/08 01:52:40;;;;;;;4.07;2.00;;;15.70;99.90;;;;;;5080623;28;20087;-43
2023/08/08 01:55:09;;;;;;;3.30;2.33;;;15.60;99.90;;;;;;5076814;28;20024;-43
2023/08/08 01:57:34;;;;;;;3.13;1.90;;;15.60;99.90;;;;;;5083017;28;20051;-43
2023/08/08 02:00:00;;;;;;;3.97;2.10;;;15.60;99.90;;;;;;5073419;28;20062;-43
2023/08/08 02:02:25;;;;;;;5.00;2.35;;;15.50;99.90;;;;;;5084015;28;20054;-43
2023/08/08 02:04:53;;;;;;;2.47;2.03;;;15.50;99.90;;;;;;5072957;28;20674;-43
2023/08/08 02:07:19;;;;;;;3.38;1.85;;;15.50;99.90;;;;;;5084199;28;20318;-43
2023/08/08 02:09:46;;;;;;;4.45;2.33;;;15.50;99.90;;;;;;5072665;28;20035;-44
2023/08/08 02:12:14;;;;;;;2.50;1.80;;;15.50;99.90;;;;;;5083993;28;20047;-43
2023/08/08 02:14:39;;;;;;;2.28;1.90;;;15.50;99.90;;;;;;5072133;28;20028;-44
2023/08/08 02:17:05;;;;;;;2.58;1.67;;;15.50;99.90;;;;;;5085350;28;20028;-42
2023/08/08 02:19:31;;;;;;;3.88;2.00;;;15.50;99.90;;;;;;5072092;28;20127;-43
2023/08/08 02:21:56;;;;;;;2.28;1.70;;;15.60;99.90;;;;;;5084272;28;20032;-44
2023/08/08 02:24:22;;;;;;;3.83;2.00;;;15.50;99.90;;;;;;5074723;28;20424;-43
2023/08/08 02:26:48;;;;;;;2.97;1.75;;;15.50;99.90;;;;;;5080967;28;20028;-43
2023/08/08 02:29:17;;;;;;;3.00;1.80;;;15.50;99.90;;;;;;5077467;28;20480;-43
2023/08/08 02:31:42;;;;;;;3.58;1.77;;;15.50;99.90;;;;;;5080028;28;20082;-43
2023/08/08 02:34:08;;;;;;;4.55;2.20;;;15.50;99.90;;;;;;5079266;28;20017;-43
2023/08/08 02:36:37;;;;;;;3.88;1.83;;;15.40;99.90;;;;;;5076916;28;20115;-43
2023/08/08 02:39:03;;;;;;;3.45;1.90;;;15.40;99.90;;;;;;5081221;28;20020;-44
2023/08/08 02:41:34;;;;;;;4.63;1.88;;;15.40;99.90;;;;;;5074843;28;20115;-43
2023/08/08 02:44:00;;;;;;;2.95;1.77;;;15.40;99.90;;;;;;5082906;28;20062;-44
2023/08/08 02:46:26;;;;;;;2.88;2.17;;;15.40;99.90;;;;;;5072686;28;20039;-43
2023/08/08 02:48:51;;;;;;;3.45;2.40;;;15.40;99.90;;;;;;5068970;28;20056;-43
2023/08/08 02:51:17;;;;;;;4.20;2.25;;;15.30;99.90;;;;;;5075577;28;20100;-43
2023/08/08 02:53:42;;;;;;;3.60;2.13;;;15.30;99.90;;;;;;5063841;28;20036;-43
2023/08/08 02:56:08;;;;;;;3.60;2.08;;;15.30;99.90;;;;;;5076775;28;20054;-44
2023/08/08 02:58:33;;;;;;;2.92;1.90;;;15.30;99.90;;;;;;5066774;28;20020;-43
2023/08/08 03:00:59;;;;;;;3.60;2.00;;;15.30;99.90;;;;;;5079771;28;20024;-44
2023/08/08 03:03:25;;;;;;;3.83;2.15;;;15.30;99.90;;;;;;5068420;28;20037;-43
2023/08/08 03:05:50;;;;;;;3.33;2.30;;;15.30;99.90;;;;;;5077926;28;20036;-43
2023/08/08 03:08:16;;;;;;;3.50;2.28;;;15.30;99.90;;;;;;5069694;28;20012;-43
2023/08/08 03:10:41;;;;;;;3.67;1.92;;;15.20;99.90;;;;;;5075095;28;20039;-43
2023/08/08 03:13:10;;;;;;;3.50;1.98;;;15.20;99.90;;;;;;5072572;28;20148;-43
2023/08/08 03:15:36;;;;;;;2.50;2.10;;;15.10;99.90;;;;;;5072067;28;20662;-43
2023/08/08 03:18:03;;;;;;;3.53;1.90;;;15.10;99.90;;;;;;5074873;28;20131;-43
2023/08/08 03:20:31;;;;;;;4.00;1.90;;;15.20;99.90;;;;;;5070529;28;20020;-43
2023/08/08 03:22:57;;;;;;;5.47;2.35;;;15.20;99.90;;;;;;5076473;28;20578;-43
2023/08/08 03:25:22;;;;;;;4.20;2.30;;;15.20;99.90;;;;;;5069182;28;20025;-43
2023/08/08 03:27:48;;;;;;;3.22;2.22;;;15.20;99.90;;;;;;5078784;28;20534;-43
2023/08/08 03:30:14;;;;;;;5.25;2.67;;;15.30;99.90;;;;;;5068790;28;20121;-43
2023/08/08 03:32:39;;;;;;;4.65;3.17;;;15.30;99.90;;;;;;5078944;28;20115;-43
2023/08/08 03:35:06;;;;;;;3.88;2.35;;;15.30;99.90;;;;;;5080805;28;20024;-43
2023/08/08 03:37:31;;;;;;;5.95;2.67;;;15.30;99.90;;;;;;5074050;28;20016;-43
2023/08/08 03:39:57;;;;;;;3.50;2.63;;;15.40;99.90;;;;;;5087262;28;20024;-43
2023/08/08 03:42:23;;;;;;;4.78;2.60;;;15.40;99.90;;;;;;5073854;28;20035;-43
2023/08/08 03:44:48;;;;;;;2.88;2.50;;;15.40;99.90;;;;;;5087942;28;20710;-42
2023/08/08 03:47:14;;;;;;;4.30;2.70;;;15.40;99.90;;;;;;5079580;28;20028;-42
2023/08/08 03:49:40;;;;;;;2.83;2.40;;;15.40;99.90;;;;;;5086715;28;20127;-42
2023/08/08 03:52:05;;;;;;;4.97;2.80;;;15.40;99.90;;;;;;5079240;28;20123;-43
2023/08/08 03:54:31;;;;;;;4.57;2.53;;;15.40;99.90;;;;;;5082623;28;20039;-43
2023/08/08 03:57:06;;;;;;;5.70;2.80;;;15.40;99.90;;;;;;5081755;28;20027;-43
2023/08/08 03:59:32;;;;;;;4.38;2.55;;;15.40;99.90;;;;;;5081316;28;20077;-42
2023/08/08 04:01:57;;;;;;;5.28;2.67;;;15.40;99.90;;;;;;5083070;28;20386;-42
2023/08/08 04:04:23;;;;;;;3.67;2.55;;;15.40;99.90;;;;;;5077201;28;20020;-42
2023/08/08 04:06:52;;;;;;;3.45;2.67;;;15.40;99.90;;;;;;5085577;28;20019;-42
2023/08/08 04:09:17;;;;;;;3.42;2.50;;;15.40;99.90;;;;;;5075910;28;20024;-42
2023/08/08 04:11:43;;;;;;;4.35;2.80;;;15.40;99.90;;;;;;5084441;28;20047;-43
2023/08/08 04:14:08;;;;;;;4.00;2.45;;;15.40;99.90;;;;;;5075431;28;20031;-43
2023/08/08 04:16:34;;;;;;;5.93;2.67;;;15.40;99.90;;;;;;5087303;28;20053;-42
2023/08/08 04:18:59;;;;;;;4.00;2.53;;;15.40;99.90;;;;;;5073482;28;20081;-42
2023/08/08 04:21:27;;;;;;;4.60;2.70;;;15.40;99.90;;;;;;5087307;28;20165;-42
2023/08/08 04:23:52;;;;;;;4.72;3.20;;;15.40;99.90;;;;;;5074269;28;20035;-42
2023/08/08 04:26:18;;;;;;;4.55;2.70;;;15.40;99.90;;;;;;5086137;28;20024;-43
2023/08/08 04:28:44;;;;;;;4.90;2.50;;;15.40;99.90;;;;;;5075245;28;20056;-42
2023/08/08 04:31:09;;;;;;;4.82;2.70;;;15.40;99.90;;;;;;5085231;28;20123;-43
2023/08/08 04:33:35;;;;;;;4.63;2.53;;;15.40;99.90;;;;;;5077118;28;20601;-42
2023/08/08 04:36:00;;;;;;;4.20;2.75;;;15.40;99.90;;;;;;5082718;28;20024;-43
2023/08/08 04:38:26;;;;;;;4.75;2.72;;;15.40;99.90;;;;;;5080539;28;20136;-43
2023/08/08 04:40:52;;;;;;;4.40;2.90;;;15.40;99.90;;;;;;5079197;28;20359;-43
2023/08/08 04:43:17;;;;;;;4.22;2.83;;;15.40;99.90;;;;;;5083642;28;20192;-43
2023/08/08 04:45:43;;;;;;;4.32;2.53;;;15.40;99.90;;;;;;5076544;28;20120;-43
2023/08/08 04:48:08;;;;;;;4.40;2.53;;;15.40;99.90;;;;;;5078145;28;20045;-44
2023/08/08 04:50:34;;;;;;;3.90;2.60;;;15.40;99.90;;;;;;5077388;28;20020;-43
2023/08/08 04:52:59;;;;;;;5.05;2.80;;;15.40;99.90;;;;;;5066801;28;20089;-43
2023/08/08 04:55:25;;;;;;;4.93;2.58;;;15.40;99.90;;;;;;5078257;28;20021;-43
2023/08/08 04:57:50;;;;;;;5.72;3.03;;;15.50;99.90;;;;;;5066559;28;20021;-43
2023/08/08 05:00:16;;;;;;;4.82;3.00;;;15.50;99.90;;;;;;5078473;28;20025;-43
2023/08/08 05:02:42;;;;;;;4.07;2.70;;;15.50;99.90;;;;;;5065893;28;20039;-43
2023/08/08 05:05:09;;;;;;;4.03;2.42;;;15.50;99.90;;;;;;5078458;28;20027;-44
2023/08/08 05:07:37;;;;;;;4.40;2.50;;;15.50;99.90;;;;;;5065522;28;20028;-42
2023/08/08 05:10:06;;;;;;;3.90;2.58;;;15.50;99.90;;;;;;5076686;28;20059;-43
2023/08/08 05:12:31;;;;;;;4.57;2.90;;;15.50;99.90;;;;;;5067727;28;20032;-43
2023/08/08 05:14:57;;;;;;;7.18;3.17;;;15.50;99.90;;;;;;5073305;28;20027;-45
2023/08/08 05:17:22;;;;;;;5.63;3.13;;;15.50;99.90;;;;;;5069983;28;20397;-43
2023/08/08 05:19:48;;;;;;;5.55;3.10;;;15.50;99.90;;;;;;5071643;28;20052;-43
2023/08/08 05:22:14;;;;;;;4.10;2.67;;;15.50;99.90;;;;;;5071589;28;20028;-43
2023/08/08 05:24:39;;;;;;;7.28;3.05;;;15.50;99.90;;;;;;5068996;28;20021;-43
2023/08/08 05:27:05;;;;;;;4.70;3.20;;;15.60;99.90;;;;;;5076781;28;20077;-43
2023/08/08 05:29:31;;;;;;;3.90;2.80;;;15.60;99.90;;;;;;5069217;28;20083;-43
2023/08/08 05:32:04;;;;;;;7.78;3.05;;;15.70;99.90;;;;;;5075308;28;20040;-43
2023/08/08 05:34:29;;;;;;;4.28;2.83;;;15.70;99.90;;;;;;5065847;28;20024;-43
2023/08/08 05:36:55;;;;;;;6.70;3.28;;;15.80;99.90;;;;;;5074828;28;20070;-43
2023/08/08 05:39:20;;;;;;;4.65;3.30;;;15.80;99.90;;;;;;5064194;28;20111;-43
2023/08/08 05:41:46;;;;;;;5.70;3.25;;;15.80;99.90;;;;;;5076979;28;20016;-43
2023/08/08 05:44:12;;;;;;;4.68;3.45;;;15.80;99.90;;;;;;5063417;28;20036;-43
2023/08/08 05:46:37;;;;;;;4.97;3.08;;;15.90;99.90;;;;;;5077182;28;20024;-43
2023/08/08 05:49:06;;;;;;;6.90;3.70;;;15.90;99.90;;;;;;5079425;28;20044;-43
2023/08/08 05:51:32;;;;;;;4.75;2.85;;;16.00;99.90;;;;;;5072520;28;20027;-43
2023/08/08 05:54:00;;;;;;;5.63;3.28;;;16.00;99.90;;;;;;5082605;28;20415;-43
2023/08/08 05:56:37;;;;;;;6.70;4.00;;;16.00;99.90;;;;;;5074591;28;20021;-43
2023/08/08 05:59:02;;;;;;;5.30;3.58;;;16.00;99.90;;;;;;5082202;28;20024;-42
2023/08/08 06:01:28;;;;;;;4.78;3.30;;;16.10;99.90;;;;;;5076317;28;20020;-42
2023/08/08 06:03:54;;;;;;;5.97;3.30;;;16.10;99.90;;;;;;5069884;28;20710;-42
2023/08/08 06:06:20;;;;;;;7.45;3.30;;;16.20;99.90;;;;;;5069203;28;20032;-43
2023/08/08 06:08:45;;;;;;;5.85;3.35;;;16.20;99.90;;;;;;5070335;28;20776;-43
2023/08/08 06:11:11;;;;;;;4.32;3.22;;;16.30;99.90;;;;;;5066132;28;20069;-43
2023/08/08 06:13:36;;;;;;;4.97;3.40;;;16.40;99.90;;;;;;5073496;28;20068;-43
2023/08/08 06:16:06;;;;;;;5.78;3.50;;;16.40;99.90;;;;;;5064726;28;20090;-43
2023/08/08 06:18:32;;;;;;;4.40;3.08;;;16.40;99.90;;;;;;5074439;28;20043;-42
2023/08/08 06:20:58;;;;;;;4.70;2.80;;;16.40;99.90;;;;;;5064978;28;20086;-43
2023/08/08 06:23:24;;;;;;;4.68;2.55;;;16.50;99.90;;;;;;5074516;28;20742;-42
2023/08/08 06:25:52;;;;;;;3.90;2.38;;;16.60;99.90;;;;;;5063624;28;20028;-43
2023/08/08 06:28:38;;;;;;;5.72;2.70;;;16.70;99.90;;;;;;5070499;28;20582;-43
2023/08/08 06:31:04;;;;;;;5.65;2.80;;;16.80;99.90;;;;;;5083278;28;20051;-43
2023/08/08 06:33:29;;;;;;;4.68;2.72;;;16.80;99.90;;;;;;5073661;28;20104;-43
2023/08/08 06:36:05;;;;;;;4.57;2.40;;;16.80;99.90;;;;;;5089042;28;20123;-43
2023/08/08 06:38:33;;;;;;;4.05;2.70;;;16.80;99.90;;;;;;5075342;28;20032;-43
2023/08/08 06:41:00;;;;;;;6.25;3.20;;;16.70;99.90;;;;;;5088912;28;20639;-42
2023/08/08 06:43:25;;;;;;;5.00;3.17;;;16.70;99.90;;;;;;5076042;28;20498;-43
2023/08/08 06:45:51;;;;;;;6.10;2.55;;;16.70;99.90;;;;;;5088299;28;20024;-43
2023/08/08 06:48:17;;;;;;;3.25;2.53;;;16.70;99.90;;;;;;5077894;28;20037;-43
2023/08/08 06:50:42;;;;;;;6.38;2.85;;;16.70;99.90;;;;;;5086701;28;20542;-43
2023/08/08 06:53:08;;;;;;;3.72;2.63;;;16.70;99.90;;;;;;5079825;28;20029;-43
2023/08/08 06:55:34;;;;;;;4.68;2.33;;;16.70;99.90;;;;;;5083878;28;20020;-43
2023/08/08 06:57:59;;;;;;;4.00;2.30;;;16.80;99.90;;;;;;5082648;28;20480;-43
2023/08/08 07:00:27;;;;;;;4.30;2.55;;;16.80;99.90;;;;;;5080300;28;20108;-43
2023/08/08 07:02:52;;;;;;;4.38;2.10;;;16.80;99.90;;;;;;5086451;28;20123;-43
2023/08/08 07:05:18;;;;;;;5.25;2.00;;;16.80;99.90;;;;;;5078737;28;20882;-43
2023/08/08 07:07:44;;;;;;;5.80;2.00;;;16.80;99.90;;;;;;5086036;28;20024;-43
2023/08/08 07:10:12;;;;;;;3.20;1.73;;;16.90;99.90;;;;;;5077500;28;20020;-44
2023/08/08 07:12:38;;;;;;;3.65;1.48;;;16.90;99.90;;;;;;5087114;28;20051;-43
2023/08/08 07:15:07;;;;;;;3.20;1.90;;;16.90;99.90;;;;;;5075944;28;20008;-43
2023/08/08 07:17:32;;;;;;;3.08;1.42;;;16.80;99.90;;;;;;5089381;28;20061;-42
2023/08/08 07:20:01;;;;;;;2.53;1.40;;;16.80;99.90;;;;;;5075549;28;20561;-43
2023/08/08 07:22:27;;;;;;;2.55;1.13;;;16.80;99.90;;;;;;5088228;28;20145;-43
2023/08/08 07:24:53;;;;;;;1.98;1.15;;;16.80;99.90;;;;;;5075037;28;20438;-43
2023/08/08 07:27:21;;;;;;;2.13;1.35;;;16.70;99.90;;;;;;5087813;28;20032;-43
2023/08/08 07:29:47;;;;;;;2.22;1.30;;;16.80;99.90;;;;;;5075394;28;20023;-43
2023/08/08 07:32:13;;;;;;;2.88;1.00;;;16.80;99.90;;;;;;5086815;28;20040;-43
2023/08/08 07:34:38;;;;;;;2.30;1.20;;;16.90;99.90;;;;;;5078239;28;20027;-43
2023/08/08 07:37:05;;;;;;;1.50;1.00;;;16.90;99.90;;;;;;5083841;28;20036;-42
2023/08/08 07:39:30;;;;;;;3.50;1.10;;;17.00;99.90;;;;;;5081790;28;20020;-42
2023/08/08 07:41:57;;;;;;;3.53;0.90;;;17.10;99.90;;;;;;5080351;28;20383;-42
2023/08/08 07:44:28;;;;;;;1.33;1.15;;;17.20;99.90;;;;;;5083387;28;20031;-42
2023/08/08 07:46:53;;;;;;;2.72;1.10;;;17.30;99.90;;;;;;5079454;28;20076;-42
2023/08/08 07:49:19;;;;;;;3.72;1.30;;;17.30;99.90;;;;;;5071116;28;20051;-43
2023/08/08 07:51:45;;;;;;;1.80;1.00;;;17.40;99.90;;;;;;5077639;28;20116;-42
2023/08/08 07:54:10;;;;;;;1.88;1.08;;;17.50;99.90;;;;;;5068390;28;20058;-42
2023/08/08 07:56:36;;;;;;;2.40;1.08;;;17.50;99.90;;;;;;5078050;28;20299;-42
2023/08/08 07:59:03;;;;;;;1.33;0.82;;;17.50;99.90;;;;;;5067449;28;20032;-42
2023/08/08 08:01:29;;;;;;;2.60;0.90;;;17.50;99.90;;;;;;5080189;28;20023;-43
2023/08/08 08:03:55;;;;;;;2.47;0.98;;;17.60;99.90;;;;;;5067002;28;20063;-42
2023/08/08 08:06:21;;;;;;;1.88;1.00;;;17.60;99.90;;;;;;5079661;28;20467;-43
2023/08/08 08:08:49;;;;;;;1.88;0.80;;;17.60;99.90;;;;;;5067843;28;20108;-42
2023/08/08 08:11:16;;;;;;;1.77;0.70;;;17.70;99.90;;;;;;5078556;28;20073;-42
2023/08/08 08:13:42;;;;;;;1.73;0.80;;;17.60;99.90;;;;;;5067028;28;20479;-42
2023/08/08 08:16:08;;;;;;;1.42;0.90;;;17.60;99.90;;;;;;5076978;28;20077;-42
2023/08/08 08:18:36;;;;;;;2.80;0.93;;;17.60;99.90;;;;;;5069196;28;20024;-42
2023/08/08 08:21:02;;;;;;;1.27;0.60;;;17.60;99.90;;;;;;5073683;28;20405;-43
2023/08/08 08:23:27;;;;;;;1.75;0.90;;;17.70;99.90;;;;;;5072289;28;20039;-42
2023/08/08 08:25:53;;;;;;;2.92;0.90;;;17.80;99.90;;;;;;5070656;28;20012;-42
2023/08/08 08:28:19;;;;;;;4.60;0.95;;;17.80;99.90;;;;;;5074676;28;20519;-42
2023/08/08 08:30:44;;;;;;;1.45;0.95;;;17.80;99.90;;;;;;5067023;28;20086;-43
2023/08/08 08:33:10;;;;;;;1.35;0.88;;;17.80;99.90;;;;;;5076538;28;20439;-43
2023/08/08 08:35:37;;;;;;;2.58;1.05;;;17.90;99.90;;;;;;5068161;28;20483;-43
2023/08/08 08:38:03;;;;;;;1.90;0.77;;;17.90;99.90;;;;;;5077203;28;20028;-43
2023/08/08 08:40:33;;;;;;;3.40;0.90;;;18.00;99.90;;;;;;5066553;28;20043;-43
2023/08/08 08:43:00;;;;;;;1.55;0.82;;;18.10;99.90;;;;;;5077594;28;20039;-42
2023/08/08 08:45:29;;;;;;;2.15;0.68;;;18.10;99.90;;;;;;5066087;28;20032;-42
2023/08/08 08:48:00;;;;;;;1.38;0.77;;;18.10;99.90;;;;;;5076577;28;20460;-43
2023/08/08 08:50:27;;;;;;;1.98;0.75;;;18.20;99.90;;;;;;5066482;28;20028;-42
2023/08/08 08:52:55;;;;;;;1.60;0.93;;;18.30;99.90;;;;;;5078163;28;20032;-42
2023/08/08 08:55:24;;;;;;;1.65;0.70;;;18.30;99.90;;;;;;5065405;28;20031;-42
2023/08/08 08:57:50;;;;;;;0.93;0.70;;;18.40;99.90;;;;;;5078331;28;20034;-42
2023/08/08 09:00:16;;;;;;;1.95;0.70;;;18.40;99.90;;;;;;5065002;28;20383;-41
2023/08/08 09:02:45;;;;;;;1.88;0.90;;;18.50;99.90;;;;;;5075889;28;20462;-42
2023/08/08 09:05:12;;;;;;;2.15;0.68;;;18.50;99.90;;;;;;5067998;28;20506;-41
2023/08/08 09:07:38;;;;;;;1.63;0.60;;;18.60;99.90;;;;;;5072455;28;20043;-42
2023/08/08 09:10:04;;;;;;;2.45;1.00;;;18.60;99.90;;;;;;5070799;28;20108;-42
2023/08/08 09:12:31;;;;;;;0.70;0.50;;;18.60;99.90;;;;;;5070480;28;20093;-41
2023/08/08 09:14:57;;;;;;;1.35;0.60;;;18.60;99.90;;;;;;5072074;28;20121;-42
2023/08/08 09:17:26;;;;;;;1.85;0.60;;;18.60;99.90;;;;;;5067638;28;20601;-42
2023/08/08 09:19:54;;;;;;;1.83;0.70;;;18.60;99.90;;;;;;5074319;28;20159;-41
2023/08/08 09:22:20;;;;;;;1.60;0.77;;;18.70;99.90;;;;;;5066470;28;20069;-42
2023/08/08 09:24:46;;;;;;;0.73;0.68;;;18.80;99.90;;;;;;5076481;28;20533;-42
2023/08/08 09:27:12;;;;;;;1.77;0.88;;;18.90;99.90;;;;;;5066122;28;20054;-41
2023/08/08 09:29:38;;;;;;;1.08;0.52;;;19.00;99.90;;;;;;5077089;28;20029;-42
2023/08/08 09:32:08;;;;;;;1.95;0.60;;;19.10;99.90;;;;;;5065042;28;20074;-42
2023/08/08 09:34:34;;;;;;;0.90;0.45;;;19.20;99.90;;;;;;5079815;28;20025;-42
2023/08/08 09:37:03;;;;;;;0.65;0.60;;;19.20;99.90;;;;;;5065561;28;20027;-43
2023/08/08 09:39:29;;;;;;;1.05;0.60;;;19.20;99.90;;;;;;5077800;28;20039;-42
2023/08/08 09:41:56;;;;;;;2.15;0.93;;;19.10;99.90;;;;;;5064589;28;20028;-43
2023/08/08 09:44:27;;;;;;;0.95;0.50;;;19.10;99.90;;;;;;5076625;28;20069;-43
2023/08/08 09:46:53;;;;;;;1.60;0.50;;;19.10;99.90;;;;;;5065283;28;20471;-43
2023/08/08 09:49:20;;;;;;;1.65;0.80;;;19.20;99.90;;;;;;5069051;28;20051;-43
2023/08/08 09:51:46;;;;;;;1.52;0.70;;;19.20;99.90;;;;;;5082488;28;20574;-43
2023/08/08 09:54:13;;;;;;;2.10;0.80;;;19.30;99.90;;;;;;5076008;28;20744;-42
2023/08/08 09:56:42;;;;;;;1.00;0.60;;;19.40;99.90;;;;;;5079213;28;20024;-43
2023/08/08 09:59:09;;;;;;;2.28;0.65;;;19.50;99.90;;;;;;5078533;28;20020;-43
2023/08/08 10:01:43;;;;;;;1.08;0.57;;;19.50;99.90;;;;;;5078485;28;20024;-43
2023/08/08 10:04:08;;;;;;;0.93;0.60;;;19.60;99.90;;;;;;5079340;28;20030;-43
2023/08/08 10:06:34;;;;;;;0.50;0.50;;;19.70;99.90;;;;;;5076669;28;20024;-42
2023/08/08 10:09:02;;;;;;;1.05;0.50;;;19.80;99.90;;;;;;5082190;28;20020;-43
2023/08/08 10:11:30;;;;;;;0.95;0.50;;;19.80;99.90;;;;;;5073924;28;20008;-42
2023/08/08 10:13:57;;;;;;;1.63;0.70;;;19.90;99.90;;;;;;5082777;28;20033;-42
2023/08/08 10:16:24;;;;;;;1.02;0.60;;;19.90;99.90;;;;;;5072296;28;20099;-42
2023/08/08 10:18:58;;;;;;;1.33;0.55;;;19.80;99.90;;;;;;5082359;28;20039;-43
2023/08/08 10:21:24;;;;;;;0.65;0.50;;;19.80;99.90;;;;;;5074860;28;20479;-43
2023/08/08 10:24:08;;;;;;;0.88;0.57;;;19.80;99.90;;;;;;5063728;28;20054;-43
2023/08/08 10:26:33;;;;;;;1.58;0.70;;;19.80;99.90;;;;;;5070461;28;20081;-42
2023/08/08 10:29:03;;;;;;;1.70;0.70;;;19.80;99.90;;;;;;5084099;28;20031;-42
2023/08/08 10:31:34;;;;;;;0.47;0.47;;;19.80;99.90;;;;;;5071556;28;20012;-42
2023/08/08 10:34:09;;;;;;;1.00;0.68;;;20.00;99.90;;;;;;5084863;28;20032;-42
2023/08/08 10:36:48;;;;;;;1.70;0.77;;;20.00;99.90;;;;;;5071806;28;20017;-42
2023/08/08 10:39:19;;;;;;;0.80;0.65;;;20.00;99.80;;;;;;5083967;28;20118;-43
2023/08/08 10:41:47;;;;;;;0.90;0.68;;;20.00;99.90;;;;;;5071474;28;20051;-43
2023/08/08 10:44:23;;;;;;;2.55;0.75;;;20.00;99.90;;;;;;5084131;28;20028;-43
2023/08/08 10:46:51;;;;;;;0.60;0.60;;;20.10;99.90;;;;;;5071102;28;20120;-43
2023/08/08 10:49:17;;;;;;;0.88;0.50;;;20.10;99.90;;;;;;5069370;28;20053;-43
2023/08/08 10:51:46;;;;;;;0.73;0.70;;;20.10;99.90;;;;;;5075308;28;20028;-42
2023/08/08 10:54:23;;;;;;;0.60;0.60;;;20.10;99.90;;;;;;5064370;28;20043;-42
2023/08/08 10:56:53;;;;;;;1.13;0.70;;;20.10;99.90;;;;;;5075957;28;20368;-42
2023/08/08 10:59:40;;;;;;;1.50;0.75;;;20.10;99.70;;;;;;5064328;28;20068;-42
2023/08/08 11:02:07;;;;;;;1.90;0.80;;;20.20;98.90;;;;;;5075871;28;20036;-42
2023/08/08 11:04:37;;;;;;;1.08;0.60;;;20.20;99.30;;;;;;5063676;28;20488;-45
2023/08/08 11:07:02;;;;;;;2.75;0.90;;;20.30;99.30;;;;;;5064445;28;20079;-43
2023/08/08 11:09:28;;;;;;;1.13;0.80;;;20.30;98.90;;;;;;5082667;28;20653;-43
2023/08/08 11:11:54;;;;;;;1.45;0.88;;;20.30;99.10;;;;;;5074998;28;20137;-42
2023/08/08 11:14:22;;;;;;;1.08;0.60;;;20.40;98.00;;;;;;5078974;28;20040;-43
2023/08/08 11:16:50;;;;;;;1.27;0.70;;;20.40;98.50;;;;;;5077095;28;20119;-43
2023/08/08 11:19:19;;;;;;;1.02;0.70;;;20.40;98.50;;;;;;5079533;28;20054;-43
2023/08/08 11:21:47;;;;;;;2.13;0.75;;;20.50;98.40;;;;;;5081575;28;20024;-43
2023/08/08 11:24:13;;;;;;;0.85;0.70;;;20.50;98.50;;;;;;5080170;28;20113;-42
2023/08/08 11:26:41;;;;;;;0.77;0.70;;;20.50;98.60;;;;;;5082084;28;20020;-43
2023/08/08 11:29:07;;;;;;;3.63;0.80;;;20.40;98.50;;;;;;5076110;28;20031;-42
2023/08/08 11:31:36;;;;;;;0.70;0.50;;;20.40;98.40;;;;;;5085293;28;20016;-42
2023/08/08 11:34:03;;;;;;;1.38;0.70;;;20.40;98.50;;;;;;5074682;28;20036;-42
2023/08/08 11:36:33;;;;;;;0.65;0.50;;;20.40;98.60;;;;;;5085610;28;20031;-42
2023/08/08 11:39:07;;;;;;;1.15;0.80;;;20.40;98.30;;;;;;5075979;28;20032;-42
2023/08/08 11:41:34;;;;;;;1.35;0.80;;;20.40;97.90;;;;;;5085484;28;20028;-42
2023/08/08 11:44:01;;;;;;;1.02;0.70;;;20.20;98.20;;;;;;5075201;28;20482;-42
2023/08/08 11:46:27;;;;;;;0.68;0.60;;;20.20;98.60;;;;;;5087645;28;20103;-43
2023/08/08 11:48:53;;;;;;;2.60;0.88;;;20.30;98.90;;;;;;5081051;28;20127;-42
2023/08/08 11:51:18;;;;;;;1.58;0.65;;;20.40;98.30;;;;;;5087552;28;20383;-42
2023/08/08 11:53:51;;;;;;;1.30;0.80;;;20.60;98.30;;;;;;5082314;28;20040;-42
2023/08/08 11:56:22;;;;;;;1.25;0.80;;;20.60;97.00;;;;;;5065913;28;20035;-43
2023/08/08 11:58:55;;;;;;;2.78;1.00;;;20.70;96.80;;;;;;5077667;28;20435;-43
2023/08/08 12:01:22;;;;;;;2.55;0.93;;;20.70;96.50;;;;;;5066988;28;20035;-43
2023/08/08 12:03:50;;;;;;;0.85;0.75;;;20.70;96.90;;;;;;5076355;28;20016;-42
2023/08/08 12:06:17;;;;;;;0.75;0.70;;;20.80;97.40;;;;;;5067937;28;20028;-42
2023/08/08 12:08:44;;;;;;;0.90;0.65;;;20.90;97.60;;;;;;5073296;28;20106;-42
2023/08/08 12:11:14;;;;;;;1.02;0.80;;;21.00;97.50;;;;;;5070791;28;20111;-42
2023/08/08 12:13:44;;;;;;;1.40;0.85;;;21.10;97.60;;;;;;5072425;28;20035;-42
2023/08/08 12:16:11;;;;;;;0.95;0.70;;;21.10;97.50;;;;;;5071727;28;20111;-42
2023/08/08 12:18:40;;;;;;;1.00;0.70;;;21.10;97.60;;;;;;5071256;28;20471;-42
2023/08/08 12:21:07;;;;;;;1.05;0.70;;;21.20;97.50;;;;;;5074449;28;20028;-41
2023/08/08 12:23:33;;;;;;;1.33;1.00;;;21.20;97.40;;;;;;5068282;28;20095;-42
2023/08/08 12:26:03;;;;;;;1.02;0.90;;;21.30;96.70;;;;;;5077176;28;20116;-42
2023/08/08 12:28:29;;;;;;;0.80;0.80;;;21.30;96.80;;;;;;5068066;28;20164;-43
2023/08/08 12:30:54;;;;;;;5.70;1.08;;;21.20;96.70;;;;;;5075923;28;20536;-43
2023/08/08 12:33:20;;;;;;;2.33;1.00;;;21.10;95.90;;;;;;5067532;28;20460;-42
2023/08/08 12:35:46;;;;;;;1.15;0.90;;;21.00;96.60;;;;;;5077026;28;20035;-43
2023/08/08 12:38:12;;;;;;;2.00;0.70;;;20.90;96.50;;;;;;5065125;28;20024;-42
2023/08/08 12:40:37;;;;;;;0.93;0.75;;;21.00;96.90;;;;;;5078903;28;20047;-42
2023/08/08 12:43:03;;;;;;;1.08;0.90;;;21.00;96.70;;;;;;5065947;28;20467;-42
2023/08/08 12:45:29;;;;;;;0.98;0.80;;;21.10;96.80;;;;;;5077793;28;20024;-42
2023/08/08 12:47:54;;;;;;;0.98;0.88;;;21.10;96.50;;;;;;5067110;28;20020;-43